createdAt,value
2022-08-04T00:00:14.819Z,25.70
2022-08-04T00:03:09.322Z,25.70
2022-08-04T00:05:46.476Z,25.60
2022-08-04T00:08:20.527Z,25.60
2022-08-04T00:10:51.368Z,25.60
2022-08-04T00:13:24.982Z,25.50
2022-08-04T00:15:54.653Z,25.50
2022-08-04T00:18:27.198Z,25.40
2022-08-04T00:21:00.444Z,25.40
2022-08-04T00:24:12.227Z,25.40
2022-08-04T00:26:18.159Z,25.30
2022-08-04T00:28:49.350Z,25.30
2022-08-04T00:31:18.650Z,25.20
2022-08-04T00:34:06.906Z,25.20
2022-08-04T00:36:35.363Z,25.20
2022-08-04T00:39:03.807Z,25.20
2022-08-04T00:41:56.859Z,25.10
2022-08-04T00:44:37.884Z,25.10
2022-08-04T00:47:15.487Z,25.10
2022-08-04T00:50:09.598Z,25.10
2022-08-04T00:52:57.423Z,25.00
2022-08-04T00:56:07.968Z,25.00
2022-08-04T00:58:48.068Z,24.90
2022-08-04T01:01:29.997Z,24.90
2022-08-04T01:04:04.631Z,24.90
2022-08-04T01:06:39.077Z,24.80
2022-08-04T01:09:35.334Z,24.80
2022-08-04T01:12:33.167Z,24.70
2022-08-04T01:15:06.901Z,24.70
2022-08-04T01:18:01.074Z,24.60
2022-08-04T01:20:34.634Z,24.60
2022-08-04T01:23:37.462Z,24.60
2022-08-04T01:26:57.259Z,24.50
2022-08-04T01:29:29.328Z,24.50
2022-08-04T01:32:20.977Z,24.50
2022-08-04T01:34:57.218Z,24.40
2022-08-04T01:37:50.381Z,24.40
2022-08-04T01:40:18.651Z,24.40
2022-08-04T01:42:46.714Z,24.40
2022-08-04T01:45:16.638Z,24.40
2022-08-04T01:47:52.009Z,24.40
2022-08-04T01:50:21.530Z,24.30
2022-08-04T01:52:53.213Z,24.30
2022-08-04T01:55:21.881Z,24.30
2022-08-04T01:57:51.476Z,24.20
2022-08-04T02:00:22.777Z,24.20
2022-08-04T02:02:51.674Z,24.20
2022-08-04T02:05:22.365Z,24.20
2022-08-04T02:08:05.385Z,24.20
2022-08-04T02:10:55.876Z,24.20
2022-08-04T02:13:29.207Z,24.20
2022-08-04T02:16:05.754Z,24.10
2022-08-04T02:18:44.629Z,24.10
2022-08-04T02:21:16.215Z,24.10
2022-08-04T02:23:52.473Z,24.10
2022-08-04T02:26:23.099Z,24.10
2022-08-04T02:29:00.603Z,24.10
2022-08-04T02:31:34.422Z,24.10
2022-08-04T02:34:08.793Z,24.00
2022-08-04T02:36:39.505Z,24.00
2022-08-04T02:39:09.197Z,24.00
2022-08-04T02:41:39.975Z,24.00
2022-08-04T02:44:09.477Z,24.00
2022-08-04T02:46:40.880Z,24.00
2022-08-04T02:49:11.285Z,24.10
2022-08-04T02:51:42.839Z,23.90
2022-08-04T02:54:11.369Z,23.80
2022-08-04T02:56:40.418Z,23.80
2022-08-04T02:59:10.052Z,23.80
2022-08-04T03:01:56.456Z,23.80
2022-08-04T03:04:42.809Z,23.80
2022-08-04T03:07:40.505Z,23.80
2022-08-04T03:10:45.091Z,23.70
2022-08-04T03:14:00.949Z,23.70
2022-08-04T03:17:05.877Z,23.70
2022-08-04T03:20:11.735Z,23.80
2022-08-04T03:23:13.378Z,23.80
2022-08-04T03:26:17.255Z,23.70
2022-08-04T03:29:35.937Z,23.60
2022-08-04T03:32:50.457Z,23.60
2022-08-04T03:35:39.828Z,23.60
2022-08-04T03:38:36.140Z,23.60
2022-08-04T03:41:55.069Z,23.60
2022-08-04T03:44:39.830Z,23.50
2022-08-04T03:47:42.988Z,23.40
2022-08-04T03:50:47.985Z,23.40
2022-08-04T03:53:46.739Z,23.40
2022-08-04T03:56:42.500Z,23.40
2022-08-04T03:59:25.459Z,23.50
2022-08-04T04:02:11.658Z,23.50
2022-08-04T04:05:01.221Z,23.50
2022-08-04T04:08:01.682Z,23.60
2022-08-04T04:10:58.412Z,23.60
2022-08-04T04:13:39.085Z,23.70
2022-08-04T04:16:20.436Z,24.20
2022-08-04T04:19:10.063Z,24.80
2022-08-04T04:21:57.028Z,25.50
2022-08-04T04:25:04.749Z,26.20
2022-08-04T04:27:44.446Z,27.10
2022-08-04T04:30:18.831Z,27.70
2022-08-04T04:33:08.819Z,28.20
2022-08-04T04:35:47.811Z,28.60
2022-08-04T04:38:50.832Z,29.00
2022-08-04T04:41:38.219Z,29.60
2022-08-04T04:44:34.490Z,30.10
2022-08-04T04:47:10.865Z,30.50
2022-08-04T04:49:47.658Z,31.00
2022-08-04T04:52:23.021Z,31.40
2022-08-04T04:54:59.985Z,31.80
2022-08-04T04:57:54.790Z,32.20
2022-08-04T05:00:27.326Z,32.60
2022-08-04T05:03:25.047Z,33.40
2022-08-04T05:06:16.183Z,34.10
2022-08-04T05:09:03.692Z,34.70
2022-08-04T05:12:59.222Z,35.40
2022-08-04T05:15:03.120Z,35.70
2022-08-04T05:17:36.393Z,36.00
2022-08-04T05:20:11.054Z,36.40
2022-08-04T05:22:45.170Z,36.70
2022-08-04T05:25:20.376Z,37.20
2022-08-04T05:27:56.633Z,37.70
2022-08-04T05:30:28.198Z,38.10
2022-08-04T05:33:00.910Z,38.70
2022-08-04T05:35:38.961Z,39.00
2022-08-04T05:38:26.189Z,39.20
2022-08-04T05:40:54.886Z,39.40
2022-08-04T05:43:24.558Z,39.80
2022-08-04T05:45:55.135Z,40.10
2022-08-04T05:48:24.149Z,40.10
2022-08-04T05:50:55.557Z,40.30
2022-08-04T05:53:28.444Z,40.70
2022-08-04T05:55:59.636Z,40.70
2022-08-04T05:58:30.204Z,40.80
2022-08-04T06:01:01.844Z,40.70
2022-08-04T06:03:32.180Z,40.90
2022-08-04T06:06:01.164Z,41.00
2022-08-04T06:08:31.328Z,41.10
2022-08-04T06:11:03.583Z,40.90
2022-08-04T06:13:49.159Z,40.90
2022-08-04T06:16:29.117Z,41.00
2022-08-04T06:20:02.999Z,41.70
2022-08-04T06:21:55.366Z,42.40
2022-08-04T06:24:30.476Z,42.90
2022-08-04T06:26:59.930Z,43.00
2022-08-04T06:29:34.772Z,43.10
2022-08-04T06:32:29.669Z,43.20
2022-08-04T06:35:03.552Z,43.40
2022-08-04T06:37:42.013Z,43.80
2022-08-04T06:40:29.492Z,43.70
2022-08-04T06:42:58.732Z,44.00
2022-08-04T06:45:28.014Z,44.40
2022-08-04T06:47:58.071Z,44.60
2022-08-04T06:51:25.420Z,44.50
2022-08-04T06:53:15.931Z,44.80
2022-08-04T06:55:46.124Z,45.10
2022-08-04T06:58:15.266Z,45.40
2022-08-04T07:00:45.655Z,45.80
2022-08-04T07:03:15.672Z,46.40
2022-08-04T07:05:44.341Z,46.50
2022-08-04T07:08:12.846Z,46.40
2022-08-04T07:10:41.702Z,46.10
2022-08-04T07:13:11.435Z,46.30
2022-08-04T07:15:42.398Z,46.60
2022-08-04T07:18:10.473Z,46.50
2022-08-04T07:20:42.840Z,46.80
2022-08-04T07:23:12.915Z,46.60
2022-08-04T07:25:58.826Z,46.50
2022-08-04T07:28:29.085Z,46.60
2022-08-04T07:30:58.272Z,46.90
2022-08-04T07:33:27.519Z,47.30
2022-08-04T07:36:04.640Z,47.40
2022-08-04T07:38:46.460Z,47.60
2022-08-04T07:41:39.081Z,47.10
2022-08-04T07:44:08.671Z,46.30
2022-08-04T07:46:36.963Z,46.10
2022-08-04T07:49:06.010Z,46.20
2022-08-04T07:51:37.609Z,46.70
2022-08-04T07:54:07.748Z,47.20
2022-08-04T07:56:39.439Z,47.50
2022-08-04T07:59:07.697Z,47.60
2022-08-04T08:01:37.306Z,47.40
2022-08-04T08:04:08.222Z,47.30
2022-08-04T08:06:43.083Z,47.60
2022-08-04T08:09:14.753Z,47.20
2022-08-04T08:12:37.482Z,47.20
2022-08-04T08:14:35.001Z,47.50
2022-08-04T08:17:04.409Z,47.90
2022-08-04T08:19:32.729Z,47.40
2022-08-04T08:22:02.449Z,46.60
2022-08-04T08:24:31.620Z,46.40
2022-08-04T08:27:01.085Z,46.60
2022-08-04T08:29:30.716Z,46.60
2022-08-04T08:32:05.396Z,46.70
2022-08-04T08:34:35.660Z,46.70
2022-08-04T08:37:13.979Z,46.40
2022-08-04T08:39:46.861Z,46.40
2022-08-04T08:42:47.534Z,46.20
2022-08-04T08:45:52.922Z,46.30
2022-08-04T08:48:56.735Z,46.40
2022-08-04T08:51:37.049Z,46.00
2022-08-04T08:54:29.908Z,45.60
2022-08-04T08:57:10.086Z,46.00
2022-08-04T08:59:54.967Z,46.50
2022-08-04T09:02:46.211Z,46.50
2022-08-04T09:05:36.112Z,46.40
2022-08-04T09:08:20.679Z,46.50
2022-08-04T09:10:54.074Z,47.00
2022-08-04T09:13:30.362Z,47.00
2022-08-04T09:16:06.119Z,46.90
2022-08-04T09:18:38.594Z,46.70
2022-08-04T09:21:14.786Z,46.60
2022-08-04T09:23:49.992Z,46.50
2022-08-04T09:26:27.180Z,46.70
2022-08-04T09:29:06.762Z,46.90
2022-08-04T09:31:51.736Z,47.20
2022-08-04T09:34:42.629Z,47.00
2022-08-04T09:37:18.279Z,47.10
2022-08-04T09:39:55.577Z,47.30
2022-08-04T09:42:34.852Z,47.50
2022-08-04T09:45:13.440Z,48.00
2022-08-04T09:47:54.159Z,48.20
2022-08-04T09:50:35.343Z,47.70
2022-08-04T09:53:29.311Z,48.20
2022-08-04T09:56:09.538Z,48.60
2022-08-04T09:58:53.606Z,48.50
2022-08-04T10:01:25.370Z,48.00
2022-08-04T10:03:57.412Z,47.40
2022-08-04T10:06:38.663Z,47.40
2022-08-04T10:09:19.159Z,47.40
2022-08-04T10:11:59.519Z,47.50
2022-08-04T10:14:39.952Z,47.40
2022-08-04T10:17:23.460Z,46.90
2022-08-04T10:20:02.309Z,46.40
2022-08-04T10:23:02.247Z,46.00
2022-08-04T10:26:06.029Z,46.00
2022-08-04T10:28:31.396Z,46.10
2022-08-04T10:31:05.976Z,45.10
2022-08-04T10:33:41.556Z,44.80
2022-08-04T10:36:13.808Z,44.60
2022-08-04T10:38:57.249Z,44.60
2022-08-04T10:41:34.226Z,44.90
2022-08-04T10:44:16.034Z,45.10
2022-08-04T10:46:52.298Z,45.60
2022-08-04T10:49:24.956Z,45.40
2022-08-04T10:52:00.468Z,45.20
2022-08-04T10:54:34.606Z,45.20
2022-08-04T10:57:09.941Z,44.90
2022-08-04T10:59:44.459Z,45.00
2022-08-04T11:02:27.639Z,45.20
2022-08-04T11:05:02.479Z,45.10
2022-08-04T11:07:33.731Z,44.80
2022-08-04T11:10:02.688Z,44.60
2022-08-04T11:12:32.724Z,44.80
2022-08-04T11:15:06.031Z,44.80
2022-08-04T11:17:39.424Z,44.30
2022-08-04T11:20:34.709Z,44.00
2022-08-04T11:23:08.078Z,44.10
2022-08-04T11:25:44.658Z,44.30
2022-08-04T11:28:23.331Z,44.40
2022-08-04T11:30:56.430Z,44.20
2022-08-04T11:33:45.503Z,43.50
2022-08-04T11:36:21.421Z,43.30
2022-08-04T11:38:54.363Z,43.50
2022-08-04T11:41:31.406Z,43.70
2022-08-04T11:44:02.938Z,43.40
2022-08-04T11:46:40.444Z,42.60
2022-08-04T11:49:16.123Z,41.80
2022-08-04T11:51:46.637Z,41.60
2022-08-04T11:54:16.106Z,41.80
2022-08-04T11:56:44.192Z,42.00
2022-08-04T11:59:12.245Z,42.10
2022-08-04T12:02:00.634Z,42.10
2022-08-04T12:04:47.300Z,42.00
2022-08-04T12:07:40.541Z,42.00
2022-08-04T12:10:37.924Z,41.60
2022-08-04T12:13:16.519Z,41.00
2022-08-04T12:15:53.130Z,40.00
2022-08-04T12:18:25.796Z,39.70
2022-08-04T12:21:00.404Z,39.70
2022-08-04T12:23:34.505Z,39.80
2022-08-04T12:26:07.251Z,40.00
2022-08-04T12:29:07.242Z,40.00
2022-08-04T12:31:28.434Z,39.90
2022-08-04T12:34:05.014Z,39.40
2022-08-04T12:36:41.099Z,39.10
2022-08-04T12:39:16.237Z,38.70
2022-08-04T12:41:49.632Z,38.40
2022-08-04T12:44:37.979Z,38.20
2022-08-04T12:47:27.514Z,38.10
2022-08-04T12:50:02.958Z,38.20
2022-08-04T12:55:34.221Z,38.00
2022-08-04T12:58:03.861Z,37.70
2022-08-04T13:00:43.732Z,37.70
2022-08-04T13:03:15.239Z,37.70
2022-08-04T13:05:44.841Z,37.70
2022-08-04T13:08:15.328Z,37.70
2022-08-04T13:10:47.264Z,37.80
2022-08-04T13:13:19.333Z,37.80
2022-08-04T13:15:58.150Z,37.80
2022-08-04T13:18:30.430Z,37.80
2022-08-04T13:24:22.002Z,37.50
2022-08-04T13:27:03.285Z,37.40
2022-08-04T13:29:58.919Z,37.20
2022-08-04T13:30:25.246Z,37.60
2022-08-04T13:32:26.502Z,37.10
2022-08-04T13:34:57.023Z,36.90
2022-08-04T13:37:31.720Z,36.80
2022-08-04T13:40:04.007Z,36.70
2022-08-04T13:42:35.857Z,36.60
2022-08-04T13:45:08.259Z,36.50
2022-08-04T13:47:40.047Z,36.50
2022-08-04T13:50:16.373Z,36.60
2022-08-04T13:52:45.753Z,36.60
2022-08-04T13:55:30.081Z,36.60
2022-08-04T13:58:11.792Z,36.40
2022-08-04T14:00:46.313Z,36.40
2022-08-04T14:03:24.316Z,36.40
2022-08-04T14:06:16.244Z,36.60
2022-08-04T14:08:51.308Z,36.50
2022-08-04T14:12:08.840Z,36.40
2022-08-04T14:14:19.350Z,36.50
2022-08-04T14:17:06.483Z,36.50
2022-08-04T14:19:54.674Z,36.40
2022-08-04T14:22:34.926Z,36.40
2022-08-04T14:25:05.854Z,36.40
2022-08-04T14:27:44.363Z,36.30
2022-08-04T14:30:23.990Z,36.30
2022-08-04T14:33:59.559Z,36.30
2022-08-04T14:35:58.416Z,36.30
2022-08-04T14:38:42.047Z,36.20
2022-08-04T14:41:10.523Z,36.20
2022-08-04T14:43:45.811Z,36.20
2022-08-04T14:46:14.688Z,36.20
2022-08-04T14:49:01.550Z,36.20
2022-08-04T14:51:36.546Z,36.10
2022-08-04T14:54:08.932Z,36.20
2022-08-04T14:56:48.114Z,36.20
2022-08-04T14:59:17.775Z,36.10
2022-08-04T15:02:00.967Z,36.00
2022-08-04T15:04:32.327Z,35.90
2022-08-04T15:07:04.632Z,35.90
2022-08-04T15:09:33.706Z,36.00
2022-08-04T15:12:02.333Z,36.00
2022-08-04T15:14:37.108Z,36.00
2022-08-04T15:17:12.079Z,36.10
2022-08-04T15:19:56.593Z,36.20
2022-08-04T15:22:24.715Z,36.30
2022-08-04T15:24:55.580Z,36.40
2022-08-04T15:27:26.640Z,36.40
2022-08-04T15:30:01.899Z,36.40
2022-08-04T15:32:31.675Z,36.40
2022-08-04T15:35:06.673Z,36.30
2022-08-04T15:37:40.972Z,36.20
2022-08-04T15:40:16.382Z,36.20
2022-08-04T15:42:48.871Z,36.20
2022-08-04T15:46:02.040Z,36.20
2022-08-04T15:48:27.254Z,36.10
2022-08-04T15:51:19.857Z,36.10
2022-08-04T15:54:27.292Z,36.10
2022-08-04T15:57:02.429Z,36.00
2022-08-04T15:59:57.569Z,36.00
2022-08-04T16:02:47.982Z,35.90
2022-08-04T16:05:39.506Z,35.90
2022-08-04T16:08:18.193Z,35.90
2022-08-04T16:10:49.814Z,36.00
2022-08-04T16:13:20.308Z,36.00
2022-08-04T16:15:50.903Z,36.00
2022-08-04T16:18:39.568Z,36.10
2022-08-04T16:21:17.729Z,36.10
2022-08-04T16:24:10.978Z,36.20
2022-08-04T16:26:55.100Z,36.20
2022-08-04T16:29:39.355Z,36.10
2022-08-04T16:32:13.096Z,35.90
2022-08-04T16:34:54.706Z,36.00
2022-08-04T16:37:30.287Z,36.00
2022-08-04T16:40:33.657Z,35.90
2022-08-04T16:43:13.341Z,35.90
2022-08-04T16:45:50.879Z,35.80
2022-08-04T16:48:20.169Z,35.70
2022-08-04T16:51:05.327Z,35.70
2022-08-04T16:53:53.205Z,35.60
2022-08-04T16:56:33.535Z,35.60
2022-08-04T16:59:08.879Z,35.50
2022-08-04T17:01:37.578Z,35.50
2022-08-04T17:04:07.035Z,35.40
2022-08-04T17:06:38.354Z,35.40
2022-08-04T17:09:10.765Z,35.40
2022-08-04T17:11:39.881Z,35.40
2022-08-04T17:14:08.194Z,35.40
2022-08-04T17:16:38.619Z,35.30
2022-08-04T17:19:20.073Z,35.30
2022-08-04T17:22:02.924Z,35.30
2022-08-04T17:24:33.125Z,35.30
2022-08-04T17:27:01.530Z,35.30
2022-08-04T17:29:44.383Z,35.30
2022-08-04T17:32:23.279Z,35.20
2022-08-04T17:34:53.978Z,35.20
2022-08-04T17:37:53.206Z,35.20
2022-08-04T17:40:22.642Z,35.10
2022-08-04T17:46:18.905Z,35.00
2022-08-04T17:49:04.147Z,35.00
2022-08-04T17:52:04.478Z,34.90
2022-08-04T17:54:39.076Z,34.90
2022-08-04T17:57:19.488Z,34.80
2022-08-04T17:59:56.431Z,34.70
2022-08-04T18:02:33.519Z,34.70
2022-08-04T18:05:06.818Z,34.70
2022-08-04T18:08:41.356Z,34.70
2022-08-04T18:10:54.209Z,34.60
2022-08-04T18:13:25.841Z,34.60
2022-08-04T18:16:03.028Z,34.60
2022-08-04T18:18:31.482Z,34.50
2022-08-04T18:21:03.216Z,34.40
2022-08-04T18:23:33.101Z,34.30
2022-08-04T18:26:03.686Z,34.30
2022-08-04T18:28:33.712Z,34.20
2022-08-04T18:31:02.195Z,34.10
2022-08-04T18:33:39.845Z,34.10
2022-08-04T18:36:33.571Z,34.10
2022-08-04T18:39:13.148Z,34.00
2022-08-04T18:42:02.085Z,33.90
2022-08-04T18:44:32.515Z,33.80
2022-08-04T18:47:19.759Z,33.80
2022-08-04T18:50:59.888Z,33.70
2022-08-04T18:52:45.516Z,33.60
2022-08-04T18:55:55.262Z,33.50
2022-08-04T18:58:07.202Z,33.50
2022-08-04T19:00:45.802Z,33.40
2022-08-04T19:03:23.102Z,33.40
2022-08-04T19:05:51.909Z,33.30
2022-08-04T19:08:32.972Z,33.20
2022-08-04T19:11:36.959Z,33.20
2022-08-04T19:13:58.625Z,33.10
2022-08-04T19:16:27.468Z,33.00
2022-08-04T19:18:56.667Z,32.90
2022-08-04T19:22:01.589Z,32.90
2022-08-04T19:24:31.546Z,32.80
2022-08-04T19:27:07.567Z,32.80
2022-08-04T19:29:44.272Z,32.70
2022-08-04T19:32:16.129Z,32.60
2022-08-04T19:34:47.100Z,32.60
2022-08-04T19:37:55.999Z,32.50
2022-08-04T19:40:05.659Z,32.40
2022-08-04T19:42:34.658Z,32.30
2022-08-04T19:45:04.340Z,32.20
2022-08-04T19:48:16.829Z,32.10
2022-08-04T19:50:20.304Z,32.10
2022-08-04T19:52:52.594Z,32.00
2022-08-04T19:55:22.882Z,31.90
2022-08-04T19:58:08.329Z,31.90
2022-08-04T20:00:39.057Z,31.80
2022-08-04T20:03:11.298Z,31.80
2022-08-04T20:05:53.627Z,31.70
2022-08-04T20:08:24.267Z,31.70
2022-08-04T20:13:40.375Z,31.60
2022-08-04T20:16:29.391Z,31.50
2022-08-04T20:19:02.857Z,31.50
2022-08-04T20:21:36.434Z,31.40
2022-08-04T20:24:38.798Z,31.40
2022-08-04T20:27:13.791Z,31.30
2022-08-04T20:32:34.043Z,31.20
2022-08-04T20:35:03.324Z,31.20
2022-08-04T20:40:19.853Z,31.10
2022-08-04T20:42:48.087Z,31.00
2022-08-04T20:45:16.798Z,31.00
2022-08-04T20:47:53.077Z,31.00
2022-08-04T20:50:30.231Z,30.90
2022-08-04T20:52:58.691Z,30.90
2022-08-04T20:58:14.705Z,30.70
2022-08-04T21:00:44.817Z,30.60
2022-08-04T21:03:49.283Z,30.60
2022-08-04T21:06:10.840Z,30.50
2022-08-04T21:08:39.252Z,30.40
2022-08-04T21:11:08.997Z,30.30
2022-08-04T21:13:52.557Z,30.20
2022-08-04T21:16:54.301Z,30.10
2022-08-04T21:19:12.920Z,30.00
2022-08-04T21:21:41.438Z,29.90
2022-08-04T21:24:13.511Z,29.80
2022-08-04T21:26:46.569Z,29.80
2022-08-04T21:29:15.336Z,29.70
2022-08-04T21:31:50.993Z,29.70
2022-08-04T21:34:38.540Z,29.60
2022-08-04T21:37:12.768Z,29.60
2022-08-04T21:39:50.946Z,29.50
2022-08-04T21:42:30.623Z,29.50
2022-08-04T21:44:59.270Z,29.40
2022-08-04T21:47:45.916Z,29.40
2022-08-04T21:50:19.529Z,29.30
2022-08-04T21:52:49.236Z,29.30
2022-08-04T21:55:18.925Z,29.20
2022-08-04T21:57:49.275Z,29.20
2022-08-04T22:00:20.200Z,29.10
2022-08-04T22:02:53.285Z,29.10
2022-08-04T22:05:23.654Z,29.00
2022-08-04T22:07:52.746Z,29.00
2022-08-04T22:10:33.045Z,29.00
2022-08-04T22:13:06.680Z,29.00
2022-08-04T22:16:04.444Z,28.90
2022-08-04T22:18:24.667Z,28.80
2022-08-04T22:20:57.075Z,28.80
2022-08-04T22:23:26.371Z,28.70
2022-08-04T22:25:55.755Z,28.70
2022-08-04T22:28:27.836Z,28.60
2022-08-04T22:30:57.013Z,28.60
2022-08-04T22:33:55.068Z,28.60
2022-08-04T22:36:17.190Z,28.50
2022-08-04T22:38:50.007Z,28.50
2022-08-04T22:41:23.724Z,28.50
2022-08-04T22:44:02.456Z,28.40
2022-08-04T22:46:31.553Z,28.40
2022-08-04T22:48:59.623Z,28.40
2022-08-04T22:51:29.451Z,28.40
2022-08-04T22:53:58.277Z,28.30
2022-08-04T22:56:38.178Z,28.30
2022-08-04T22:59:11.158Z,28.20
2022-08-04T23:02:00.701Z,28.20
2022-08-04T23:04:29.290Z,28.20
2022-08-04T23:06:58.825Z,28.10
2022-08-04T23:09:50.556Z,28.00
2022-08-04T23:12:25.000Z,28.00
2022-08-04T23:14:54.825Z,28.00
2022-08-04T23:17:23.260Z,27.90
2022-08-04T23:19:57.450Z,27.90
2022-08-04T23:22:41.253Z,27.80
2022-08-04T23:25:16.132Z,27.80
2022-08-04T23:27:50.751Z,27.80
2022-08-04T23:30:21.912Z,27.70
2022-08-04T23:32:53.943Z,27.70
2022-08-04T23:35:22.669Z,27.70
2022-08-04T23:37:56.723Z,27.60
2022-08-04T23:40:32.871Z,27.60
2022-08-04T23:43:02.227Z,27.50
2022-08-04T23:46:04.387Z,27.50
2022-08-04T23:48:32.924Z,27.50
2022-08-04T23:51:04.483Z,27.40
2022-08-04T23:54:03.138Z,27.40
2022-08-04T23:56:33.085Z,27.40
2022-08-04T23:59:03.978Z,27.30
